EGAA Airport Information

Runway Information
Runway 07 Length 9121 ft width 148 ft
Elevation 206 ft Threshold 0 ft Heading 65
Runway 25 Length 9121 ft Width 148 ft
Elevation 268 ft Threshold 0 ft Heading 245
Runway 17 Length 6401 ft width 148 ft
Elevation 206 ft Threshold 525 ft Heading 162
Runway 35 Length 6401 ft Width 148 ft
Elevation 258 ft Threshold 502 ft Heading 342
Airport Frequencies
Type APP Name APP Frequency 128.5 MHZ
Type ATIS Name ATIS Frequency 128.2 MHZ
Type GND Name GND Frequency 121.75 MHZ
Type ILS 17 Name Frequency 110.9 MHZ
Type ILS 25 Name Frequency 109.9 MHZ
Type OPS Name OPS Frequency 26.48 MHZ
Type RDR Name DIRECTOR Frequency 120.9 MHZ
Type TWR Name TWR Frequency 118.3 MHZ
Airport Navaids
Type VOR-DME Name Belfast Frequency 117200 KHZ
Type NDB Name Aldergrove Frequency 332 KHZ
Airport Weather Information & NOTAM
ADDS - METARS form results

(0325 UTC 19 August 2018)
 
METAR text: EGAA 190320Z AUTO 22008KT 9999 BKN007/// BKN011/// 17/16 Q1009
Conditions at: EGAA (BELFAST/ALDERGRO, GB) observed 0320 UTC 19 August 2018
Temperature: 17.0°C (63°F)
Dewpoint: 16.0°C (61°F) [RH = 94%]
Pressure (altimeter): 29.79 inches Hg (1009.0 mb)
Winds: from the SW (220 degrees) at 9 MPH (8 knots; 4.2 m/s)
Visibility: 6 or more miles (10+ km)
Ceiling: 700 feet AGL
Clouds: broken clouds at 700 feet AGL
broken clouds at 1100 feet AGL
Weather: no significant weather observed at this time

METAR text: EGAA 190250Z AUTO 21007KT 9999 FEW005/// BKN009/// 17/16 Q1008
Conditions at: EGAA (BELFAST/ALDERGRO, GB) observed 0250 UTC 19 August 2018
Temperature: 17.0°C (63°F)
Dewpoint: 16.0°C (61°F) [RH = 94%]
Pressure (altimeter): 29.76 inches Hg (1008.0 mb)
Winds: from the SSW (210 degrees) at 8 MPH (7 knots; 3.6 m/s)
Visibility: 6 or more miles (10+ km)
Ceiling: 900 feet AGL
Clouds: few clouds at 500 feet AGL
broken clouds at 900 feet AGL
Weather: no significant weather observed at this time